CDT,Max TemperatureF,Mean TemperatureF,Min TemperatureF,Max Dew PointF,MeanDew PointF,Min DewpointF,Max Humidity, Mean Humidity, Min Humidity, Max Sea Level PressureIn, Mean Sea Level PressureIn, Min Sea Level PressureIn, Max VisibilityMiles, Mean VisibilityMiles, Min VisibilityMiles, Max Wind SpeedMPH, Mean Wind SpeedMPH, Max Gust SpeedMPH,PrecipitationIn, CloudCover, Events, WindDirDegrees
2013-10-1,73,57,41,41,35,28,89,55,20,30.01,29.94,29.77,10,10,10,14,6,18,0.00,0,,220
2013-10-2,75,61,47,51,42,37,77,54,31,29.94,29.89,29.86,10,10,10,21,10,25,0.01,0,,307
2013-10-3,51,49,47,50,47,42,100,86,71,29.91,29.88,29.82,10,6,1,17,10,22,1.30,7,Rain-Thunderstorm,23
2013-10-4,50,42,33,50,43,32,100,96,92,29.87,29.78,29.63,10,2,1,32,19,47,0.90,8,Rain-Snow-Thunderstorm,343
2013-10-5,37,35,33,36,33,30,100,95,89,30.04,29.87,29.73,10,3,0,39,27,53,0.16,8,Fog-Snow,309
2013-10-6,58,47,35,38,34,29,86,65,43,30.14,30.09,29.98,10,10,7,25,13,35,0.00,2,,300
2013-10-7,77,56,34,43,39,33,100,63,26,30.12,29.99,29.79,10,10,10,18,8,25,0.00,0,,214
2013-10-8,80,64,48,46,41,38,86,54,21,29.79,29.73,29.67,10,10,10,23,8,30,0.00,0,,234
2013-10-9,69,55,41,49,45,39,96,71,45,29.93,29.88,29.79,10,10,10,17,5,29,0.00,0,,6
2013-10-10,73,57,40,58,49,39,96,69,41,29.89,29.72,29.52,10,9,2,31,10,43,0.40,2,Rain-Thunderstorm,188
2013-10-11,60,52,43,56,45,36,83,69,54,29.97,29.54,29.21,10,9,1,44,23,56,0.01,5,Rain-Thunderstorm,249
2013-10-12,60,48,36,35,32,27,85,58,30,30.30,30.16,29.99,10,10,10,21,9,25,0.00,0,,294
2013-10-13,67,51,34,37,32,30,89,58,26,30.34,30.24,30.12,10,10,10,29,14,38,T,2,,138
2013-10-14,53,46,39,52,45,37,93,81,68,30.08,29.82,29.66,10,8,2,31,17,43,0.36,8,Rain-Thunderstorm,203
2013-10-15,40,38,36,37,34,33,92,86,79,30.23,30.09,29.90,10,9,5,30,18,41,T,8,Rain,311
2013-10-16,57,43,29,35,30,23,100,64,27,30.20,30.08,29.97,10,10,6,15,6,21,0.00,2,,272
2013-10-17,46,35,24,36,30,23,92,71,49,30.18,30.07,29.96,10,10,10,28,14,36,0.00,4,,309
2013-10-18,48,36,23,31,26,21,92,69,45,30.20,30.14,30.03,10,10,10,23,9,30,0.00,3,,275
2013-10-19,64,49,33,37,31,28,82,56,30,30.02,29.88,29.78,10,10,9,24,10,32,0.00,3,,279
2013-10-20,54,42,29,37,33,25,85,64,42,30.11,29.90,29.76,10,10,10,31,12,38,0.00,5,,305
2013-10-21,57,43,29,44,35,28,96,72,47,30.11,30.04,29.96,10,10,4,22,8,26,0.03,6,Rain-Snow,272
2013-10-22,53,46,38,43,38,34,92,73,54,30.14,30.06,29.96,10,10,10,22,9,30,0.02,5,Rain,320
2013-10-23,54,45,36,39,36,33,92,73,54,30.30,30.15,30.03,10,10,8,20,9,25,0.00,6,,341
2013-10-24,51,43,34,34,29,23,82,66,49,30.43,30.37,30.32,10,10,10,12,4,15,0.00,6,,269
2013-10-25,68,49,30,41,36,29,96,66,35,30.32,30.15,30.01,10,9,5,17,7,21,0.00,0,,253
2013-10-26,58,44,29,38,27,17,92,57,21,30.33,30.22,30.09,10,10,10,15,6,20,0.00,0,,313
2013-10-27,72,51,30,38,31,25,85,55,24,30.07,29.93,29.81,10,10,10,21,10,26,0.00,0,,304
2013-10-28,36,33,30,31,28,26,92,84,75,30.33,30.24,30.07,10,9,2,23,14,30,0.01,7,,51
2013-10-29,33,32,30,31,30,28,100,95,89,30.28,30.14,30.01,10,4,2,16,7,20,0.01,8,,27
2013-10-30,44,36,27,37,32,28,100,85,70,30.10,29.91,29.75,10,7,1,8,3,10,0.00,6,,226
2013-10-31,54,41,27,36,31,26,100,71,41,29.80,29.70,29.62,10,9,4,32,12,45,0.00,3,,289